KEGE/EGE METAR and TAF weather

Enter ICAO airport designator
Station Type Date Time Source
KEGE METAR 2018/12/12 05:56 UTC NOAA

KEGE 120556Z AUTO 00000KT 10SM CLR M08/M12 A3016 RMK AO2 SLP276 T10831117 10033 21083 400721122 53004 FZRANO


Station Type Date Time Source
KEGE Decoded METAR 2018/12/12 05:56 UTC NOAA

Eagle County Regional, CO, United States (KEGE) 39-39N 106-55W
Dec 12, 2018 - 12:56 AM EST / 2018.12.12 0556 UTC
Wind: Calm:0
Visibility: 10 mile(s):0
Sky conditions: clear
Temperature: 17.1 F (-8.3 C)
Dew Point: 10.9 F (-11.7 C)
Relative Humidity: 76%
Pressure (altimeter): 30.16 in. Hg (1021 hPa)
Pressure tendency: 0.01 inches (0.4 hPa) higher than three hours ago
ob: KEGE 120556Z AUTO 00000KT 10SM CLR M08/M12 A3016 RMK AO2 SLP276 T10831117 10033 21083 400721122 53004 FZRANO
cycle: 6

Station Type Date Time Source
KEGE TAF 2018/12/12 06:48 UTC NOAA

TAF KEGE 120546Z 1206/1306 11003KT P6SM FEW120 FEW250
FM121800 24005KT P6SM VCSH SCT070 BKN100
FM122100 25011KT P6SM VCSH BKN050 OVC070
FM122300 28011KT P6SM VCSH SCT023 OVC028
FM130100 30006KT P6SM SCT026 BKN035


Example: see airport list